sensor_id;sensor_type;location;lat;lon;timestamp;pressure;altitude;pressure_sealevel;temperature;humidity
81352;BME280;70809;52.184;13.422;2023-09-18T00:00:14;100944.88;;;18.40;70.57
81352;BME280;70809;52.184;13.422;2023-09-18T00:01:16;100944.84;;;18.43;70.24
81352;BME280;70809;52.184;13.422;2023-09-18T00:02:18;100946.78;;;18.33;69.36
81352;BME280;70809;52.184;13.422;2023-09-18T00:03:22;100947.81;;;18.23;71.33
81352;BME280;70809;52.184;13.422;2023-09-18T00:04:26;100943.44;;;18.17;71.31
81352;BME280;70809;52.184;13.422;2023-09-18T00:05:28;100939.84;;;18.20;71.38
81352;BME280;70809;52.184;13.422;2023-09-18T00:06:30;100943.34;;;18.23;71.15
81352;BME280;70809;52.184;13.422;2023-09-18T00:07:31;100934.34;;;18.29;70.71
81352;BME280;70809;52.184;13.422;2023-09-18T00:08:33;100938.84;;;18.27;71.31
81352;BME280;70809;52.184;13.422;2023-09-18T00:09:35;100936.09;;;18.31;70.65
81352;BME280;70809;52.184;13.422;2023-09-18T00:10:36;100933.41;;;18.33;69.77
81352;BME280;70809;52.184;13.422;2023-09-18T00:11:38;100926.25;;;18.35;70.80
81352;BME280;70809;52.184;13.422;2023-09-18T00:12:40;100926.19;;;18.38;68.96
81352;BME280;70809;52.184;13.422;2023-09-18T00:13:42;100925.19;;;18.45;69.65
81352;BME280;70809;52.184;13.422;2023-09-18T00:14:47;100919.72;;;18.51;69.67
81352;BME280;70809;52.184;13.422;2023-09-18T00:15:49;100924.19;;;18.52;70.29
81352;BME280;70809;52.184;13.422;2023-09-18T00:16:51;100923.28;;;18.52;69.59
81352;BME280;70809;52.184;13.422;2023-09-18T00:17:59;100924.09;;;18.58;69.97
81352;BME280;70809;52.184;13.422;2023-09-18T00:19:01;100921.50;;;18.54;69.43
81352;BME280;70809;52.184;13.422;2023-09-18T00:20:05;100918.75;;;18.58;69.73
81352;BME280;70809;52.184;13.422;2023-09-18T00:21:07;100914.16;;;18.65;68.96
81352;BME280;70809;52.184;13.422;2023-09-18T00:22:09;100917.69;;;18.70;68.90
81352;BME280;70809;52.184;13.422;2023-09-18T00:23:11;100920.22;;;18.78;69.13
81352;BME280;70809;52.184;13.422;2023-09-18T00:24:12;100918.34;;;18.83;69.22
81352;BME280;70809;52.184;13.422;2023-09-18T00:25:14;100927.31;;;18.80;69.32
81352;BME280;70809;52.184;13.422;2023-09-18T00:26:16;100922.94;;;18.76;69.12
81352;BME280;70809;52.184;13.422;2023-09-18T00:27:21;100907.78;;;18.75;69.16
81352;BME280;70809;52.184;13.422;2023-09-18T00:28:23;100922.97;;;18.73;68.95
81352;BME280;70809;52.184;13.422;2023-09-18T00:29:25;100915.81;;;18.74;69.43
81352;BME280;70809;52.184;13.422;2023-09-18T00:30:26;100916.78;;;18.71;70.19
81352;BME280;70809;52.184;13.422;2023-09-18T00:31:28;100922.94;;;18.76;69.67
81352;BME280;70809;52.184;13.422;2023-09-18T00:32:30;100912.16;;;18.79;69.17
81352;BME280;70809;52.184;13.422;2023-09-18T00:33:32;100913.09;;;18.77;69.46
81352;BME280;70809;52.184;13.422;2023-09-18T00:34:33;100913.00;;;18.83;69.25
81352;BME280;70809;52.184;13.422;2023-09-18T00:35:37;100912.06;;;18.86;68.59
81352;BME280;70809;52.184;13.422;2023-09-18T00:36:38;100909.53;;;18.78;68.71
81352;BME280;70809;52.184;13.422;2023-09-18T00:37:40;100914.13;;;18.67;70.17
81352;BME280;70809;52.184;13.422;2023-09-18T00:38:42;100914.13;;;18.70;69.84
81352;BME280;70809;52.184;13.422;2023-09-18T00:39:43;100906.00;;;18.76;69.32
81352;BME280;70809;52.184;13.422;2023-09-18T00:40:45;100906.81;;;18.81;69.22
81352;BME280;70809;52.184;13.422;2023-09-18T00:41:46;100908.72;;;18.73;69.72
81352;BME280;70809;52.184;13.422;2023-09-18T00:42:48;100905.16;;;18.72;69.72
81352;BME280;70809;52.184;13.422;2023-09-18T00:43:50;100904.34;;;18.67;70.20
81352;BME280;70809;52.184;13.422;2023-09-18T00:44:51;100910.56;;;18.68;69.92
81352;BME280;70809;52.184;13.422;2023-09-18T00:45:53;100914.16;;;18.65;69.99
81352;BME280;70809;52.184;13.422;2023-09-18T00:46:55;100912.34;;;18.69;69.94
81352;BME280;70809;52.184;13.422;2023-09-18T00:47:57;100913.28;;;18.65;70.06
81352;BME280;70809;52.184;13.422;2023-09-18T00:48:59;100905.34;;;18.60;69.36
81352;BME280;70809;52.184;13.422;2023-09-18T00:50:01;100911.56;;;18.61;69.53
81352;BME280;70809;52.184;13.422;2023-09-18T00:51:04;100915.09;;;18.64;69.88
81352;BME280;70809;52.184;13.422;2023-09-18T00:52:06;100914.16;;;18.65;69.95
81352;BME280;70809;52.184;13.422;2023-09-18T00:53:11;100911.47;;;18.67;69.81
81352;BME280;70809;52.184;13.422;2023-09-18T00:54:18;100909.72;;;18.63;69.89
81352;BME280;70809;52.184;13.422;2023-09-18T00:55:20;100910.63;;;18.63;68.93
81352;BME280;70809;52.184;13.422;2023-09-18T00:56:22;100912.44;;;18.61;70.17
81352;BME280;70809;52.184;13.422;2023-09-18T00:57:24;100901.75;;;18.61;70.20
81352;BME280;70809;52.184;13.422;2023-09-18T00:58:26;100905.41;;;18.55;70.22
81352;BME280;70809;52.184;13.422;2023-09-18T00:59:28;100902.88;;;18.48;69.67
81352;BME280;70809;52.184;13.422;2023-09-18T01:00:29;100896.63;;;18.46;69.48
81352;BME280;70809;52.184;13.422;2023-09-18T01:01:31;100898.34;;;18.50;70.25
81352;BME280;70809;52.184;13.422;2023-09-18T01:02:33;100897.44;;;18.52;69.88
81352;BME280;70809;52.184;13.422;2023-09-18T01:03:35;100893.81;;;18.55;69.75
81352;BME280;70809;52.184;13.422;2023-09-18T01:04:37;100894.66;;;18.57;70.17
81352;BME280;70809;52.184;13.422;2023-09-18T01:05:39;100892.88;;;18.57;70.31
81352;BME280;70809;52.184;13.422;2023-09-18T01:06:42;100892.84;;;18.61;69.57
81352;BME280;70809;52.184;13.422;2023-09-18T01:07:44;100891.97;;;18.58;69.78
81352;BME280;70809;52.184;13.422;2023-09-18T01:08:47;100888.50;;;18.52;69.51
81352;BME280;70809;52.184;13.422;2023-09-18T01:09:49;100892.91;;;18.56;70.11
81352;BME280;70809;52.184;13.422;2023-09-18T01:10:59;100895.63;;;18.54;69.28
81352;BME280;70809;52.184;13.422;2023-09-18T01:12:08;100889.44;;;18.49;69.50
81352;BME280;70809;52.184;13.422;2023-09-18T01:13:14;100887.75;;;18.44;70.27
81352;BME280;70809;52.184;13.422;2023-09-18T01:14:23;100894.00;;;18.44;70.67
81352;BME280;70809;52.184;13.422;2023-09-18T01:15:30;100888.81;;;18.34;70.79
81352;BME280;70809;52.184;13.422;2023-09-18T01:16:38;100896.75;;;18.38;70.82
81352;BME280;70809;52.184;13.422;2023-09-18T01:17:42;100895.84;;;18.39;70.57
81352;BME280;70809;52.184;13.422;2023-09-18T01:18:48;100894.22;;;18.29;70.43
81352;BME280;70809;52.184;13.422;2023-09-18T01:19:50;100884.59;;;18.19;71.40
81352;BME280;70809;52.184;13.422;2023-09-18T01:20:52;100891.81;;;18.14;71.44
81352;BME280;70809;52.184;13.422;2023-09-18T01:21:55;100882.03;;;18.10;71.83
81352;BME280;70809;52.184;13.422;2023-09-18T01:22:59;100881.94;;;18.16;71.41
81352;BME280;70809;52.184;13.422;2023-09-18T01:24:00;100882.81;;;18.19;71.65
81352;BME280;70809;52.184;13.422;2023-09-18T01:25:02;100883.91;;;18.04;71.84
81352;BME280;70809;52.184;13.422;2023-09-18T01:26:05;100880.41;;;17.99;71.94
81352;BME280;70809;52.184;13.422;2023-09-18T01:27:09;100881.38;;;17.95;72.27
81352;BME280;70809;52.184;13.422;2023-09-18T01:28:11;100878.63;;;18.00;71.51
81352;BME280;70809;52.184;13.422;2023-09-18T01:29:12;100874.97;;;18.07;71.50
81352;BME280;70809;52.184;13.422;2023-09-18T01:30:14;100871.41;;;18.05;71.91
81352;BME280;70809;52.184;13.422;2023-09-18T01:31:17;100874.94;;;18.09;71.71
81352;BME280;70809;52.184;13.422;2023-09-18T01:32:19;100875.78;;;18.12;71.75
81352;BME280;70809;52.184;13.422;2023-09-18T01:33:23;100871.31;;;18.13;71.61
81352;BME280;70809;52.184;13.422;2023-09-18T01:34:28;100874.16;;;18.00;72.05
81352;BME280;70809;52.184;13.422;2023-09-18T01:35:31;100871.63;;;17.91;72.21
81352;BME280;70809;52.184;13.422;2023-09-18T01:36:34;100873.47;;;17.86;72.33
81352;BME280;70809;52.184;13.422;2023-09-18T01:37:37;100876.28;;;17.78;72.95
81352;BME280;70809;52.184;13.422;2023-09-18T01:38:42;100875.50;;;17.66;73.42
81352;BME280;70809;52.184;13.422;2023-09-18T01:39:44;100875.47;;;17.69;73.37
81352;BME280;70809;52.184;13.422;2023-09-18T01:40:47;100874.63;;;17.65;73.60
81352;BME280;70809;52.184;13.422;2023-09-18T01:41:50;100881.78;;;17.63;73.79
81352;BME280;70809;52.184;13.422;2023-09-18T01:42:51;100879.97;;;17.65;73.38
81352;BME280;70809;52.184;13.422;2023-09-18T01:43:53;100881.75;;;17.66;73.52
81352;BME280;70809;52.184;13.422;2023-09-18T01:44:55;100879.88;;;17.71;73.28
81352;BME280;70809;52.184;13.422;2023-09-18T01:45:56;100879.00;;;17.71;73.58
81352;BME280;70809;52.184;13.422;2023-09-18T01:47:00;100877.25;;;17.73;73.39
81352;BME280;70809;52.184;13.422;2023-09-18T01:48:04;100873.66;;;17.71;73.27
81352;BME280;70809;52.184;13.422;2023-09-18T01:49:07;100866.66;;;17.62;73.58
81352;BME280;70809;52.184;13.422;2023-09-18T01:50:10;100865.84;;;17.54;74.10
81352;BME280;70809;52.184;13.422;2023-09-18T01:51:13;100868.56;;;17.52;74.19
81352;BME280;70809;52.184;13.422;2023-09-18T01:52:15;100864.16;;;17.50;74.11
81352;BME280;70809;52.184;13.422;2023-09-18T01:53:17;100851.63;;;17.52;73.88
81352;BME280;70809;52.184;13.422;2023-09-18T01:54:20;100856.25;;;17.41;74.53
81352;BME280;70809;52.184;13.422;2023-09-18T01:55:21;100866.22;;;17.27;74.70
81352;BME280;70809;52.184;13.422;2023-09-18T01:56:23;100858.22;;;17.27;74.86
81352;BME280;70809;52.184;13.422;2023-09-18T01:57:25;100860.88;;;17.25;74.67
81352;BME280;70809;52.184;13.422;2023-09-18T01:58:27;100855.53;;;17.27;75.08
81352;BME280;70809;52.184;13.422;2023-09-18T01:59:31;100858.28;;;17.20;75.20
81352;BME280;70809;52.184;13.422;2023-09-18T02:00:33;100859.22;;;17.13;75.43
81352;BME280;70809;52.184;13.422;2023-09-18T02:01:35;100846.75;;;17.14;75.33
81352;BME280;70809;52.184;13.422;2023-09-18T02:02:37;100851.22;;;17.15;75.54
81352;BME280;70809;52.184;13.422;2023-09-18T02:03:48;100849.38;;;17.18;75.07
81352;BME280;70809;52.184;13.422;2023-09-18T02:05:10;100845.84;;;17.16;75.45
81352;BME280;70809;52.184;13.422;2023-09-18T02:06:13;100842.25;;;17.20;75.49
81352;BME280;70809;52.184;13.422;2023-09-18T02:07:14;100839.59;;;17.20;75.33
81352;BME280;70809;52.184;13.422;2023-09-18T02:08:17;100841.34;;;17.21;75.40
81352;BME280;70809;52.184;13.422;2023-09-18T02:09:20;100836.97;;;17.16;75.88
81352;BME280;70809;52.184;13.422;2023-09-18T02:10:24;100837.91;;;17.12;75.59
81352;BME280;70809;52.184;13.422;2023-09-18T02:11:26;100831.72;;;17.10;75.74
81352;BME280;70809;52.184;13.422;2023-09-18T02:12:28;100828.09;;;17.12;75.67
81352;BME280;70809;52.184;13.422;2023-09-18T02:13:30;100835.19;;;17.16;75.50
81352;BME280;70809;52.184;13.422;2023-09-18T02:14:32;100829.09;;;17.05;76.06
81352;BME280;70809;52.184;13.422;2023-09-18T02:15:36;100827.25;;;17.07;75.76
81352;BME280;70809;52.184;13.422;2023-09-18T02:16:39;100827.19;;;17.13;75.43
81352;BME280;70809;52.184;13.422;2023-09-18T02:17:41;100822.84;;;17.03;75.61
81352;BME280;70809;52.184;13.422;2023-09-18T02:18:43;100819.34;;;17.01;76.10
81352;BME280;70809;52.184;13.422;2023-09-18T02:19:45;100823.84;;;16.96;76.04
81352;BME280;70809;52.184;13.422;2023-09-18T02:20:46;100811.50;;;16.84;76.48
81352;BME280;70809;52.184;13.422;2023-09-18T02:21:48;100810.69;;;16.81;76.63
81352;BME280;70809;52.184;13.422;2023-09-18T02:22:50;100804.41;;;16.86;76.54
81352;BME280;70809;52.184;13.422;2023-09-18T02:23:52;100813.22;;;16.90;76.17
81352;BME280;70809;52.184;13.422;2023-09-18T02:24:55;100805.19;;;16.94;76.25
81352;BME280;70809;52.184;13.422;2023-09-18T02:25:58;100813.22;;;16.93;76.22
81352;BME280;70809;52.184;13.422;2023-09-18T02:27:03;100803.50;;;16.84;76.50
81352;BME280;70809;52.184;13.422;2023-09-18T02:28:05;100808.91;;;16.78;76.83
81352;BME280;70809;52.184;13.422;2023-09-18T02:29:08;100803.56;;;16.81;76.85
81352;BME280;70809;52.184;13.422;2023-09-18T02:30:11;100799.94;;;16.85;76.42
81352;BME280;70809;52.184;13.422;2023-09-18T02:31:13;100799.06;;;16.85;76.87
81352;BME280;70809;52.184;13.422;2023-09-18T02:32:15;100804.44;;;16.80;76.79
81352;BME280;70809;52.184;13.422;2023-09-18T02:33:17;100801.75;;;16.80;76.99
81352;BME280;70809;52.184;13.422;2023-09-18T02:34:18;100808.03;;;16.78;77.38
81352;BME280;70809;52.184;13.422;2023-09-18T02:35:20;100799.13;;;16.79;77.53
81352;BME280;70809;52.184;13.422;2023-09-18T02:36:22;100808.00;;;16.81;77.20
81352;BME280;70809;52.184;13.422;2023-09-18T02:37:23;100802.63;;;16.84;77.21
81352;BME280;70809;52.184;13.422;2023-09-18T02:38:25;100798.16;;;16.86;77.04
81352;BME280;70809;52.184;13.422;2023-09-18T02:39:27;100797.28;;;16.87;77.09
81352;BME280;70809;52.184;13.422;2023-09-18T02:40:30;100798.97;;;16.91;76.97
81352;BME280;70809;52.184;13.422;2023-09-18T02:41:32;100795.41;;;16.93;76.81
81352;BME280;70809;52.184;13.422;2023-09-18T02:42:34;100798.91;;;16.97;76.67
81352;BME280;70809;52.184;13.422;2023-09-18T02:43:36;100790.00;;;16.99;76.57
81352;BME280;70809;52.184;13.422;2023-09-18T02:44:38;100798.84;;;17.03;76.48
81352;BME280;70809;52.184;13.422;2023-09-18T02:45:40;100794.38;;;17.05;75.98
81352;BME280;70809;52.184;13.422;2023-09-18T02:46:42;100793.53;;;17.00;76.51
81352;BME280;70809;52.184;13.422;2023-09-18T02:47:45;100794.44;;;17.01;76.33
81352;BME280;70809;52.184;13.422;2023-09-18T02:48:47;100789.06;;;17.02;76.12
81352;BME280;70809;52.184;13.422;2023-09-18T02:49:49;100788.31;;;16.91;76.55
81352;BME280;70809;52.184;13.422;2023-09-18T02:50:51;100787.47;;;16.86;76.78
81352;BME280;70809;52.184;13.422;2023-09-18T02:51:52;100780.47;;;16.77;77.26
81352;BME280;70809;52.184;13.422;2023-09-18T02:52:54;100784.00;;;16.81;77.38
81352;BME280;70809;52.184;13.422;2023-09-18T02:53:56;100783.03;;;16.85;76.94
81352;BME280;70809;52.184;13.422;2023-09-18T02:54:57;100783.03;;;16.85;77.12
81352;BME280;70809;52.184;13.422;2023-09-18T02:56:01;100779.56;;;16.78;77.68
81352;BME280;70809;52.184;13.422;2023-09-18T02:57:03;100782.22;;;16.78;77.21
81352;BME280;70809;52.184;13.422;2023-09-18T02:58:05;100774.28;;;16.73;77.47
81352;BME280;70809;52.184;13.422;2023-09-18T02:59:06;100777.84;;;16.72;77.57
81352;BME280;70809;52.184;13.422;2023-09-18T03:00:09;100776.13;;;16.62;77.75
81352;BME280;70809;52.184;13.422;2023-09-18T03:01:11;100769.88;;;16.66;77.81
81352;BME280;70809;52.184;13.422;2023-09-18T03:02:13;100772.50;;;16.72;77.27
81352;BME280;70809;52.184;13.422;2023-09-18T03:03:15;100764.41;;;16.80;77.21
81352;BME280;70809;52.184;13.422;2023-09-18T03:04:17;100769.72;;;16.83;77.15
81352;BME280;70809;52.184;13.422;2023-09-18T03:05:19;100764.38;;;16.83;77.40
81352;BME280;70809;52.184;13.422;2023-09-18T03:06:21;100771.53;;;16.81;77.11
81352;BME280;70809;52.184;13.422;2023-09-18T03:07:22;100769.81;;;16.76;77.93
81352;BME280;70809;52.184;13.422;2023-09-18T03:08:24;100765.38;;;16.75;77.75
81352;BME280;70809;52.184;13.422;2023-09-18T03:09:26;100763.56;;;16.77;77.49
81352;BME280;70809;52.184;13.422;2023-09-18T03:10:27;100767.09;;;16.79;77.78
81352;BME280;70809;52.184;13.422;2023-09-18T03:11:30;100760.88;;;16.78;77.61
81352;BME280;70809;52.184;13.422;2023-09-18T03:12:32;100767.16;;;16.72;77.61
81352;BME280;70809;52.184;13.422;2023-09-18T03:13:34;100761.75;;;16.79;77.42
81352;BME280;70809;52.184;13.422;2023-09-18T03:14:35;100773.41;;;16.71;77.32
81352;BME280;70809;52.184;13.422;2023-09-18T03:15:38;100769.81;;;16.76;77.79
81352;BME280;70809;52.184;13.422;2023-09-18T03:16:39;100762.72;;;16.73;77.29
81352;BME280;70809;52.184;13.422;2023-09-18T03:17:41;100759.16;;;16.74;77.61
81352;BME280;70809;52.184;13.422;2023-09-18T03:18:43;100761.81;;;16.74;77.39
81352;BME280;70809;52.184;13.422;2023-09-18T03:19:47;100766.28;;;16.72;77.37
81352;BME280;70809;52.184;13.422;2023-09-18T03:20:49;100761.75;;;16.79;76.45
81352;BME280;70809;52.184;13.422;2023-09-18T03:21:51;100772.38;;;16.85;76.54
81352;BME280;70809;52.184;13.422;2023-09-18T03:22:55;100758.13;;;16.86;76.34
81352;BME280;70809;52.184;13.422;2023-09-18T03:23:57;100760.91;;;16.77;76.95
81352;BME280;70809;52.184;13.422;2023-09-18T03:24:59;100760.97;;;16.69;77.41
81352;BME280;70809;52.184;13.422;2023-09-18T03:26:01;100756.47;;;16.74;77.02
81352;BME280;70809;52.184;13.422;2023-09-18T03:27:04;100760.91;;;16.77;77.28
81352;BME280;70809;52.184;13.422;2023-09-18T03:28:06;100761.75;;;16.80;76.50
81352;BME280;70809;52.184;13.422;2023-09-18T03:29:08;100763.44;;;16.86;76.75
81352;BME280;70809;52.184;13.422;2023-09-18T03:30:10;100766.09;;;16.92;76.46
81352;BME280;70809;52.184;13.422;2023-09-18T03:31:12;100762.44;;;16.96;75.61
81352;BME280;70809;52.184;13.422;2023-09-18T03:32:13;100750.84;;;17.00;76.08
81352;BME280;70809;52.184;13.422;2023-09-18T03:33:15;100754.41;;;16.99;76.26
81352;BME280;70809;52.184;13.422;2023-09-18T03:34:17;100755.31;;;16.98;76.29
81352;BME280;70809;52.184;13.422;2023-09-18T03:35:19;100756.41;;;16.82;76.79
81352;BME280;70809;52.184;13.422;2023-09-18T03:36:22;100764.41;;;16.82;76.29
81352;BME280;70809;52.184;13.422;2023-09-18T03:37:24;100760.94;;;16.75;77.16
81352;BME280;70809;52.184;13.422;2023-09-18T03:38:26;100756.53;;;16.69;77.56
81352;BME280;70809;52.184;13.422;2023-09-18T03:39:29;100752.13;;;16.64;78.22
81352;BME280;70809;52.184;13.422;2023-09-18T03:40:30;100760.06;;;16.71;77.20
81352;BME280;70809;52.184;13.422;2023-09-18T03:41:32;100761.75;;;16.79;77.13
81352;BME280;70809;52.184;13.422;2023-09-18T03:42:35;100754.59;;;16.84;77.43
81352;BME280;70809;52.184;13.422;2023-09-18T03:43:37;100759.03;;;16.85;77.18
81352;BME280;70809;52.184;13.422;2023-09-18T03:44:38;100760.78;;;16.86;77.78
81352;BME280;70809;52.184;13.422;2023-09-18T03:45:40;100761.66;;;16.88;77.72
81352;BME280;70809;52.184;13.422;2023-09-18T03:46:43;100760.78;;;16.87;77.41
81352;BME280;70809;52.184;13.422;2023-09-18T03:47:46;100762.50;;;16.93;77.38
81352;BME280;70809;52.184;13.422;2023-09-18T03:48:48;100755.44;;;16.89;77.46
81352;BME280;70809;52.184;13.422;2023-09-18T03:49:49;100758.09;;;16.89;77.48
81352;BME280;70809;52.184;13.422;2023-09-18T03:50:51;100748.22;;;16.95;77.62
81352;BME280;70809;52.184;13.422;2023-09-18T03:51:52;100749.09;;;16.99;76.75
81352;BME280;70809;52.184;13.422;2023-09-18T03:52:57;100748.09;;;17.06;76.08
81352;BME280;70809;52.184;13.422;2023-09-18T03:53:59;100744.56;;;17.03;76.31
81352;BME280;70809;52.184;13.422;2023-09-18T03:55:01;100746.41;;;16.99;76.57
81352;BME280;70809;52.184;13.422;2023-09-18T03:56:03;100741.19;;;16.90;77.29
81352;BME280;70809;52.184;13.422;2023-09-18T03:57:05;100734.97;;;16.88;77.21
81352;BME280;70809;52.184;13.422;2023-09-18T03:58:08;100728.72;;;16.90;77.35
81352;BME280;70809;52.184;13.422;2023-09-18T03:59:09;100737.59;;;16.92;76.69
81352;BME280;70809;52.184;13.422;2023-09-18T04:00:12;100736.66;;;16.98;76.61
81352;BME280;70809;52.184;13.422;2023-09-18T04:01:15;100729.56;;;16.94;76.70
81352;BME280;70809;52.184;13.422;2023-09-18T04:02:16;100734.09;;;16.86;76.89
81352;BME280;70809;52.184;13.422;2023-09-18T04:03:18;100732.38;;;16.83;77.47
81352;BME280;70809;52.184;13.422;2023-09-18T04:04:20;100724.38;;;16.82;77.64
81352;BME280;70809;52.184;13.422;2023-09-18T04:05:22;100734.28;;;16.67;78.50
81352;BME280;70809;52.184;13.422;2023-09-18T04:06:24;100722.81;;;16.61;78.12
81352;BME280;70809;52.184;13.422;2023-09-18T04:07:26;100722.75;;;16.67;77.38
81352;BME280;70809;52.184;13.422;2023-09-18T04:08:27;100723.59;;;16.72;77.49
81352;BME280;70809;52.184;13.422;2023-09-18T04:09:29;100723.56;;;16.77;77.42
81352;BME280;70809;52.184;13.422;2023-09-18T04:10:31;100722.72;;;16.68;78.02
81352;BME280;70809;52.184;13.422;2023-09-18T04:11:32;100726.41;;;16.58;78.38
81352;BME280;70809;52.184;13.422;2023-09-18T04:12:34;100725.47;;;16.64;77.77
81352;BME280;70809;52.184;13.422;2023-09-18T04:13:37;100720.03;;;16.68;78.16
81352;BME280;70809;52.184;13.422;2023-09-18T04:14:39;100720.16;;;16.61;78.33
81352;BME280;70809;52.184;13.422;2023-09-18T04:15:41;100720.16;;;16.61;78.35
81352;BME280;70809;52.184;13.422;2023-09-18T04:16:42;100721.03;;;16.61;78.11
81352;BME280;70809;52.184;13.422;2023-09-18T04:17:44;100721.88;;;16.65;78.51
81352;BME280;70809;52.184;13.422;2023-09-18T04:18:46;100720.13;;;16.64;78.54
81352;BME280;70809;52.184;13.422;2023-09-18T04:19:48;100715.63;;;16.67;77.91
81352;BME280;70809;52.184;13.422;2023-09-18T04:20:49;100718.28;;;16.70;76.71
81352;BME280;70809;52.184;13.422;2023-09-18T04:21:51;100722.69;;;16.76;77.71
81352;BME280;70809;52.184;13.422;2023-09-18T04:23:17;100725.28;;;16.82;77.43
81352;BME280;70809;52.184;13.422;2023-09-18T04:24:20;100721.00;;;16.63;77.71
81352;BME280;70809;52.184;13.422;2023-09-18T04:25:22;100715.75;;;16.55;78.50
81352;BME280;70809;52.184;13.422;2023-09-18T04:26:24;100714.84;;;16.56;78.55
81352;BME280;70809;52.184;13.422;2023-09-18T04:27:26;100710.44;;;16.54;78.48
81352;BME280;70809;52.184;13.422;2023-09-18T04:28:27;100713.00;;;16.63;78.54
81352;BME280;70809;52.184;13.422;2023-09-18T04:29:31;100710.41;;;16.58;77.39
81352;BME280;70809;52.184;13.422;2023-09-18T04:30:33;100710.41;;;16.57;78.62
81352;BME280;70809;52.184;13.422;2023-09-18T04:31:35;100711.34;;;16.54;78.41
81352;BME280;70809;52.184;13.422;2023-09-18T04:32:37;100712.16;;;16.61;78.44
81352;BME280;70809;52.184;13.422;2023-09-18T04:33:40;100713.94;;;16.60;77.73
81352;BME280;70809;52.184;13.422;2023-09-18T04:34:42;100705.00;;;16.64;77.81
81352;BME280;70809;52.184;13.422;2023-09-18T04:35:44;100704.97;;;16.70;77.79
81352;BME280;70809;52.184;13.422;2023-09-18T04:36:47;100707.56;;;16.73;76.86
81352;BME280;70809;52.184;13.422;2023-09-18T04:37:49;100705.09;;;16.55;77.88
81352;BME280;70809;52.184;13.422;2023-09-18T04:38:51;100710.47;;;16.52;79.29
81352;BME280;70809;52.184;13.422;2023-09-18T04:39:53;100705.97;;;16.56;78.55
81352;BME280;70809;52.184;13.422;2023-09-18T04:40:58;100707.75;;;16.55;79.13
81352;BME280;70809;52.184;13.422;2023-09-18T04:42:01;100709.44;;;16.65;78.01
81352;BME280;70809;52.184;13.422;2023-09-18T04:43:03;100710.28;;;16.67;77.91
81352;BME280;70809;52.184;13.422;2023-09-18T04:44:05;100701.44;;;16.64;79.02
81352;BME280;70809;52.184;13.422;2023-09-18T04:45:09;100709.38;;;16.70;78.13
81352;BME280;70809;52.184;13.422;2023-09-18T04:46:11;100708.47;;;16.72;78.12
81352;BME280;70809;52.184;13.422;2023-09-18T04:47:13;100717.38;;;16.75;78.13
81352;BME280;70809;52.184;13.422;2023-09-18T04:48:15;100710.16;;;16.81;77.11
81352;BME280;70809;52.184;13.422;2023-09-18T04:49:17;100711.84;;;16.88;77.33
81352;BME280;70809;52.184;13.422;2023-09-18T04:50:18;100707.38;;;16.92;76.53
81352;BME280;70809;52.184;13.422;2023-09-18T04:51:20;100707.28;;;16.96;77.26
81352;BME280;70809;52.184;13.422;2023-09-18T04:52:22;100709.16;;;16.90;77.44
81352;BME280;70809;52.184;13.422;2023-09-18T04:53:24;100709.09;;;16.94;77.48
81352;BME280;70809;52.184;13.422;2023-09-18T04:54:26;100701.06;;;16.96;76.79
81352;BME280;70809;52.184;13.422;2023-09-18T04:55:27;100712.53;;;17.04;76.28
81352;BME280;70809;52.184;13.422;2023-09-18T04:56:29;100709.78;;;17.09;76.36
81352;BME280;70809;52.184;13.422;2023-09-18T04:57:31;100704.47;;;17.07;75.42
81352;BME280;70809;52.184;13.422;2023-09-18T04:58:32;100709.81;;;17.07;75.84
81352;BME280;70809;52.184;13.422;2023-09-18T04:59:34;100700.97;;;17.04;75.49
81352;BME280;70809;52.184;13.422;2023-09-18T05:00:37;100700.03;;;17.09;76.67
81352;BME280;70809;52.184;13.422;2023-09-18T05:01:39;100699.03;;;17.13;76.63
81352;BME280;70809;52.184;13.422;2023-09-18T05:02:41;100699.03;;;17.13;76.85
81352;BME280;70809;52.184;13.422;2023-09-18T05:03:43;100695.47;;;17.14;76.80
81352;BME280;70809;52.184;13.422;2023-09-18T05:04:45;100701.72;;;17.13;76.57
81352;BME280;70809;52.184;13.422;2023-09-18T05:05:47;100690.13;;;17.14;76.58
81352;BME280;70809;52.184;13.422;2023-09-18T05:06:48;100695.41;;;17.20;76.04
81352;BME280;70809;52.184;13.422;2023-09-18T05:07:50;100696.22;;;17.27;76.01
81352;BME280;70809;52.184;13.422;2023-09-18T05:08:52;100694.38;;;17.29;75.26
81352;BME280;70809;52.184;13.422;2023-09-18T05:09:54;100691.78;;;17.24;76.45
81352;BME280;70809;52.184;13.422;2023-09-18T05:10:56;100684.66;;;17.27;75.85
81352;BME280;70809;52.184;13.422;2023-09-18T05:11:57;100688.09;;;17.32;75.79
81352;BME280;70809;52.184;13.422;2023-09-18T05:12:59;100687.38;;;17.22;76.43
81352;BME280;70809;52.184;13.422;2023-09-18T05:14:01;100679.41;;;17.20;76.49
81352;BME280;70809;52.184;13.422;2023-09-18T05:15:03;100691.81;;;17.23;76.71
81352;BME280;70809;52.184;13.422;2023-09-18T05:16:06;100696.31;;;17.18;76.79
81352;BME280;70809;52.184;13.422;2023-09-18T05:17:10;100691.03;;;17.13;77.08
81352;BME280;70809;52.184;13.422;2023-09-18T05:18:12;100690.97;;;17.18;77.13
81352;BME280;70809;52.184;13.422;2023-09-18T05:19:14;100685.59;;;17.22;76.80
81352;BME280;70809;52.184;13.422;2023-09-18T05:20:16;100687.25;;;17.30;76.54
81352;BME280;70809;52.184;13.422;2023-09-18T05:21:18;100682.84;;;17.25;76.82
81352;BME280;70809;52.184;13.422;2023-09-18T05:22:20;100691.72;;;17.29;76.04